Time;durP1;ratioP1;P1;durP2;ratioP2;P2;SDS_P1;SDS_P2;PMS_P1;PMS_P2;Temp;Humidity;BMP_temperature;BMP_pressure;BME280_temperature;BME280_humidity;BME280_pressure;Samples;Min_cycle;Max_cycle;Signal;HPM_P1;HPM_P2
2020/12/20 00:01:39;;;;;;;7.80;6.10;;;6.30;99.90;;;;;;4948842;28;20182;-87
2020/12/20 00:04:05;;;;;;;6.97;6.30;;;6.30;99.90;;;;;;4946106;28;20841;-88
2020/12/20 00:06:56;;;;;;;7.40;6.30;;;6.30;99.90;;;;;;4949306;28;20442;-90
2020/12/20 00:12:57;;;;;;;7.53;6.73;;;6.20;99.90;;;;;;4957293;28;20443;-89
2020/12/20 00:15:23;;;;;;;8.60;7.80;;;6.20;99.90;;;;;;4958207;28;20442;-88
2020/12/20 00:17:50;;;;;;;7.37;6.73;;;6.20;99.90;;;;;;4945886;28;20493;-89
2020/12/20 00:20:18;;;;;;;7.23;6.63;;;6.20;99.90;;;;;;4949317;28;20574;-90
2020/12/20 00:22:45;;;;;;;8.70;7.70;;;6.20;99.90;;;;;;4948800;28;20465;-89
2020/12/20 00:25:11;;;;;;;8.13;7.23;;;6.20;99.90;;;;;;5319222;23;20501;-87
2020/12/20 00:27:37;;;;;;;7.97;7.27;;;6.30;99.90;;;;;;4950186;28;20501;-89
2020/12/20 00:30:04;;;;;;;8.57;7.50;;;6.20;99.90;;;;;;4953751;28;20818;-90
2020/12/20 00:32:30;;;;;;;6.77;6.10;;;6.20;99.90;;;;;;4950936;28;20190;-88
2020/12/20 00:34:56;;;;;;;8.00;7.30;;;6.20;99.90;;;;;;4951576;28;20805;-89
2020/12/20 00:37:22;;;;;;;8.30;7.50;;;6.20;99.90;;;;;;4956004;28;20240;-88
2020/12/20 00:39:47;;;;;;;7.83;6.30;;;6.10;99.90;;;;;;4950373;28;20188;-90
2020/12/20 00:42:29;;;;;;;7.43;6.70;;;6.20;99.90;;;;;;4972741;28;20304;-96
2020/12/20 00:44:56;;;;;;;7.50;6.80;;;6.10;99.90;;;;;;4970840;28;20196;-96
2020/12/20 00:47:22;;;;;;;8.03;7.23;;;6.10;99.90;;;;;;4972665;28;20545;-96
2020/12/20 00:49:48;;;;;;;7.50;6.73;;;6.10;99.90;;;;;;4951457;28;20543;-93
2020/12/20 00:52:14;;;;;;;7.50;6.80;;;6.00;99.90;;;;;;4979420;28;20197;-96
2020/12/20 00:54:39;;;;;;;7.60;6.90;;;6.10;99.90;;;;;;4962816;28;20204;-94
2020/12/20 00:57:05;;;;;;;7.50;6.80;;;6.10;99.90;;;;;;4954354;28;20254;-86
2020/12/20 00:59:31;;;;;;;7.40;6.70;;;6.10;99.90;;;;;;4949712;28;20182;-91
2020/12/20 01:01:58;;;;;;;7.23;6.53;;;6.10;99.90;;;;;;4976621;28;20194;-96
2020/12/20 01:04:28;;;;;;;7.33;6.60;;;6.10;99.90;;;;;;4987199;28;20188;-95
2020/12/20 01:07:10;;;;;;;7.40;6.70;;;6.10;99.90;;;;;;4968671;28;20463;-96
2020/12/20 01:09:36;;;;;;;7.40;6.70;;;6.10;99.90;;;;;;4979438;28;20518;-95
2020/12/20 01:12:05;;;;;;;7.97;6.70;;;6.20;99.90;;;;;;4960994;28;20178;-96
2020/12/20 01:17:13;;;;;;;7.20;6.20;;;6.20;99.90;;;;;;4955414;28;20492;-90
2020/12/20 01:19:39;;;;;;;7.53;6.83;;;6.20;99.90;;;;;;4951408;28;20441;-92
2020/12/20 01:22:14;;;;;;;8.50;7.60;;;6.20;99.90;;;;;;4951134;28;20708;-89
2020/12/20 01:24:39;;;;;;;7.73;7.03;;;6.00;99.90;;;;;;4951369;28;20568;-91
2020/12/20 01:27:05;;;;;;;8.37;7.57;;;6.00;99.90;;;;;;4947789;28;20634;-91
2020/12/20 01:29:30;;;;;;;8.53;7.27;;;5.90;99.90;;;;;;4953887;28;20184;-91
2020/12/20 01:31:56;;;;;;;8.00;6.60;;;6.00;99.90;;;;;;4950281;28;20259;-85
2020/12/20 01:34:22;;;;;;;9.07;7.33;;;6.00;99.90;;;;;;4961296;28;20237;-87
2020/12/20 01:36:48;;;;;;;7.87;7.10;;;5.90;99.90;;;;;;4947814;28;20241;-87
2020/12/20 01:39:15;;;;;;;7.67;6.97;;;6.00;99.90;;;;;;4947490;28;20715;-86
2020/12/20 01:41:41;;;;;;;7.30;6.70;;;6.10;99.90;;;;;;4948666;28;20794;-87
2020/12/20 01:44:07;;;;;;;8.20;7.40;;;6.10;99.90;;;;;;4948383;28;20447;-88
2020/12/20 01:46:34;;;;;;;7.87;7.07;;;6.10;99.90;;;;;;4947904;28;20477;-87
2020/12/20 01:49:01;;;;;;;8.13;7.33;;;6.10;99.90;;;;;;4961617;28;20287;-89
2020/12/20 01:51:27;;;;;;;7.83;6.67;;;5.90;99.90;;;;;;4947075;28;20835;-89
2020/12/20 01:53:53;;;;;;;7.87;7.17;;;5.90;99.90;;;;;;4957141;28;20455;-90
2020/12/20 01:56:19;;;;;;;6.50;5.63;;;6.00;99.90;;;;;;4946968;28;20187;-90
2020/12/20 01:58:46;;;;;;;6.70;5.97;;;6.00;99.90;;;;;;4950975;28;20222;-90
2020/12/20 02:01:12;;;;;;;7.10;6.17;;;6.00;99.90;;;;;;4955274;28;20846;-90
2020/12/20 02:03:38;;;;;;;6.90;6.00;;;5.90;99.90;;;;;;4945687;28;20445;-90
2020/12/20 02:06:05;;;;;;;7.97;6.23;;;5.90;99.90;;;;;;4949651;28;20193;-88
2020/12/20 02:08:31;;;;;;;7.77;6.30;;;6.00;99.90;;;;;;5152807;23;20236;-88
2020/12/20 02:11:26;;;;;;;7.87;6.43;;;6.00;99.90;;;;;;4981466;28;20563;-88
2020/12/20 02:13:52;;;;;;;6.47;5.87;;;6.00;99.90;;;;;;4967520;28;20437;-87
2020/12/20 02:16:20;;;;;;;6.10;5.60;;;6.00;99.90;;;;;;4987401;28;21030;-87
2020/12/20 02:18:46;;;;;;;5.60;5.10;;;6.00;99.90;;;;;;4986672;28;20481;-86
2020/12/20 02:21:13;;;;;;;6.67;5.97;;;5.90;99.90;;;;;;4966193;28;20434;-88
2020/12/20 02:26:17;;;;;;;6.20;5.30;;;5.80;99.90;;;;;;5530136;23;20504;-96
2020/12/20 02:28:55;;;;;;;7.73;6.00;;;5.80;99.90;;;;;;4948919;28;20481;-96
2020/12/20 02:33:56;;;;;;;7.90;7.20;;;5.90;99.90;;;;;;5459416;23;20494;-96
2020/12/20 02:36:22;;;;;;;7.80;6.87;;;5.90;99.90;;;;;;4961215;28;20461;-96
2020/12/20 02:38:48;;;;;;;7.20;6.60;;;5.90;99.90;;;;;;4957040;28;20493;-84
2020/12/20 02:41:16;;;;;;;6.03;5.53;;;5.90;99.90;;;;;;4947853;28;20449;-91
2020/12/20 02:43:42;;;;;;;9.33;6.93;;;5.90;99.90;;;;;;4951239;28;20278;-90
2020/12/20 02:46:07;;;;;;;8.37;6.50;;;5.80;99.90;;;;;;4946565;28;20671;-90
2020/12/20 02:48:33;;;;;;;7.13;6.43;;;5.80;99.90;;;;;;4955026;28;20256;-89
2020/12/20 02:50:59;;;;;;;7.07;6.47;;;5.90;99.90;;;;;;4955218;28;20193;-89
2020/12/20 02:53:25;;;;;;;6.37;5.77;;;5.80;99.90;;;;;;4953122;28;20249;-90
2020/12/20 02:55:50;;;;;;;6.60;6.00;;;5.70;99.90;;;;;;4949159;28;20196;-90
2020/12/20 02:58:16;;;;;;;7.90;7.20;;;5.60;99.90;;;;;;4954152;28;20976;-89
2020/12/20 03:00:43;;;;;;;6.80;6.20;;;5.60;99.90;;;;;;4956628;28;20195;-89
2020/12/20 03:03:08;;;;;;;7.67;6.97;;;5.60;99.90;;;;;;4951053;28;20187;-89
2020/12/20 03:05:34;;;;;;;7.73;6.93;;;5.70;99.90;;;;;;4954280;28;20443;-89
2020/12/20 03:08:00;;;;;;;7.33;6.63;;;5.70;99.90;;;;;;4952758;28;20196;-89
2020/12/20 03:10:25;;;;;;;7.43;6.77;;;5.70;99.90;;;;;;4953070;28;20645;-88
2020/12/20 03:12:51;;;;;;;8.17;7.37;;;5.80;99.90;;;;;;4950794;28;20201;-85
2020/12/20 03:15:18;;;;;;;6.87;6.17;;;5.80;99.90;;;;;;4955784;28;20190;-83
2020/12/20 03:17:43;;;;;;;7.23;6.53;;;5.80;99.90;;;;;;4958472;28;20484;-89
2020/12/20 03:20:09;;;;;;;7.37;6.67;;;5.80;99.90;;;;;;4952606;28;20450;-88
2020/12/20 03:22:35;;;;;;;9.23;6.23;;;5.70;99.90;;;;;;4958524;28;20195;-88
2020/12/20 03:25:01;;;;;;;6.30;5.60;;;5.70;99.90;;;;;;4952055;28;20645;-88
2020/12/20 03:27:26;;;;;;;6.73;6.07;;;5.80;99.90;;;;;;4958335;28;20197;-88
2020/12/20 03:29:52;;;;;;;6.83;6.23;;;6.00;99.90;;;;;;4948623;28;20947;-88
2020/12/20 03:32:18;;;;;;;7.73;6.93;;;6.00;99.90;;;;;;4951612;28;20200;-91
2020/12/20 03:34:44;;;;;;;6.30;5.70;;;5.90;99.90;;;;;;4954038;28;20197;-91
2020/12/20 03:37:09;;;;;;;7.77;6.90;;;5.80;99.90;;;;;;4950430;28;20228;-91
2020/12/20 03:39:36;;;;;;;6.83;6.20;;;5.80;99.90;;;;;;4950581;28;20195;-91
2020/12/20 03:42:09;;;;;;;7.37;6.70;;;5.80;99.90;;;;;;4947584;28;20448;-90
2020/12/20 03:44:35;;;;;;;7.83;7.13;;;5.80;99.90;;;;;;4950874;28;20452;-92
2020/12/20 03:47:01;;;;;;;7.20;6.40;;;5.80;99.90;;;;;;4979598;23;20442;-88
2020/12/20 03:49:26;;;;;;;7.63;6.93;;;5.80;99.90;;;;;;4931264;29;20199;-89
2020/12/20 03:51:52;;;;;;;7.90;7.20;;;5.80;99.90;;;;;;4927268;29;20565;-84
2020/12/20 03:54:18;;;;;;;7.30;6.60;;;5.60;99.90;;;;;;4930556;29;20194;-84
2020/12/20 03:56:43;;;;;;;8.27;7.33;;;5.60;99.90;;;;;;4929317;29;20222;-84
2020/12/20 03:59:09;;;;;;;8.00;6.57;;;5.60;99.90;;;;;;4933955;29;20244;-84
2020/12/20 04:01:34;;;;;;;6.63;6.03;;;5.60;99.90;;;;;;4934934;29;20184;-84
2020/12/20 04:04:00;;;;;;;7.20;6.50;;;5.60;99.90;;;;;;4929737;29;20653;-84
2020/12/20 04:06:26;;;;;;;8.63;7.83;;;5.70;99.90;;;;;;4934853;29;20636;-91
2020/12/20 04:08:51;;;;;;;8.13;7.17;;;5.80;99.90;;;;;;4938525;29;20224;-91
2020/12/20 04:11:17;;;;;;;8.77;7.83;;;5.80;99.90;;;;;;4929455;29;20242;-90
2020/12/20 04:13:43;;;;;;;8.57;7.70;;;5.80;99.90;;;;;;4933963;29;20234;-91
2020/12/20 04:16:10;;;;;;;7.13;6.43;;;5.80;99.90;;;;;;4934855;29;20237;-90
2020/12/20 04:18:36;;;;;;;6.90;6.27;;;5.70;99.90;;;;;;4934177;29;20581;-90
2020/12/20 04:21:03;;;;;;;7.13;6.53;;;5.80;99.90;;;;;;4930287;29;20488;-88
2020/12/20 04:23:29;;;;;;;8.40;7.13;;;5.70;99.90;;;;;;4930463;29;20437;-87
2020/12/20 04:25:54;;;;;;;9.90;8.10;;;5.80;99.90;;;;;;4936538;29;20443;-83
2020/12/20 04:28:20;;;;;;;7.70;7.00;;;5.80;99.90;;;;;;4932939;29;20193;-83
2020/12/20 04:30:47;;;;;;;6.70;6.10;;;5.80;99.90;;;;;;4930294;29;20186;-83
2020/12/20 04:33:31;;;;;;;7.30;6.60;;;5.90;99.90;;;;;;4929328;29;20197;-84
2020/12/20 04:35:59;;;;;;;8.33;6.80;;;5.70;99.90;;;;;;4933226;29;20485;-84
2020/12/20 04:38:27;;;;;;;7.43;6.73;;;5.70;99.90;;;;;;4925930;29;20852;-83
2020/12/20 04:40:53;;;;;;;7.30;6.57;;;5.70;99.90;;;;;;4929897;29;20901;-85
2020/12/20 04:43:21;;;;;;;7.40;6.70;;;5.70;99.90;;;;;;4933030;29;20540;-85
2020/12/20 04:45:47;;;;;;;7.93;6.70;;;5.60;99.90;;;;;;4927551;29;20491;-85
2020/12/20 04:48:14;;;;;;;7.93;7.20;;;5.70;99.90;;;;;;4932561;29;20904;-85
2020/12/20 04:50:42;;;;;;;7.70;6.57;;;5.70;99.90;;;;;;4931373;29;20444;-85
2020/12/20 04:53:09;;;;;;;8.90;6.93;;;5.70;99.90;;;;;;4926850;29;20950;-85
2020/12/20 04:55:52;;;;;;;7.03;6.33;;;5.70;99.90;;;;;;4934550;29;20445;-91
2020/12/20 04:58:26;;;;;;;7.20;6.60;;;5.70;99.90;;;;;;4931097;29;20474;-90
2020/12/20 05:00:53;;;;;;;8.63;7.30;;;5.80;99.90;;;;;;4933048;29;21153;-84
2020/12/20 05:03:19;;;;;;;7.43;6.73;;;5.70;99.90;;;;;;4927252;29;20473;-83
2020/12/20 05:05:44;;;;;;;6.80;6.20;;;5.70;99.90;;;;;;4933266;29;20475;-84
2020/12/20 05:08:13;;;;;;;7.70;6.90;;;5.70;99.90;;;;;;4928172;29;20188;-83
2020/12/20 05:10:40;;;;;;;7.33;6.63;;;5.70;99.90;;;;;;4931920;29;20197;-84
2020/12/20 05:13:07;;;;;;;7.97;6.70;;;5.80;99.90;;;;;;4925674;29;20459;-83
2020/12/20 05:15:33;;;;;;;8.73;7.83;;;5.80;99.90;;;;;;5604582;23;20642;-96
2020/12/20 05:23:19;;;;;;;7.13;6.53;;;5.70;99.90;;;;;;5053357;23;20501;-95
2020/12/20 05:33:28;;;;;;;8.90;7.27;;;5.70;99.90;;;;;;4940130;28;20849;-84
2020/12/20 05:36:00;;;;;;;7.50;6.47;;;5.80;99.90;;;;;;4939392;28;20447;-84
2020/12/20 05:38:27;;;;;;;7.80;6.50;;;5.60;99.90;;;;;;4942128;28;20483;-84
2020/12/20 05:40:52;;;;;;;6.47;5.87;;;5.60;99.90;;;;;;4942155;29;20852;-83
2020/12/20 05:43:23;;;;;;;8.03;6.40;;;5.70;99.90;;;;;;4959321;28;20443;-84
2020/12/20 05:45:49;;;;;;;8.87;7.27;;;5.70;99.90;;;;;;4939211;28;20188;-83
2020/12/20 05:48:20;;;;;;;7.00;6.30;;;5.60;99.90;;;;;;4943016;28;20444;-88
2020/12/20 05:50:57;;;;;;;7.70;6.97;;;5.60;99.90;;;;;;4936696;28;20438;-88
2020/12/20 05:53:30;;;;;;;7.80;6.27;;;5.60;99.90;;;;;;4939205;29;20446;-87
2020/12/20 05:56:01;;;;;;;8.00;6.10;;;5.60;99.90;;;;;;4941109;28;20810;-87
2020/12/20 05:58:28;;;;;;;9.40;6.60;;;5.60;99.90;;;;;;4948929;28;20484;-87
2020/12/20 06:00:55;;;;;;;9.40;6.70;;;5.40;99.90;;;;;;4941093;28;20444;-87
2020/12/20 06:03:22;;;;;;;7.23;6.53;;;5.40;99.90;;;;;;4942426;28;20782;-85
2020/12/20 06:05:48;;;;;;;6.83;6.13;;;5.40;99.90;;;;;;4936382;28;20474;-82
2020/12/20 06:08:16;;;;;;;7.10;6.40;;;5.30;99.90;;;;;;4942619;29;20470;-88
2020/12/20 06:10:52;;;;;;;7.23;6.53;;;5.30;99.90;;;;;;4941791;28;20545;-89
2020/12/20 06:13:20;;;;;;;7.70;5.93;;;5.30;99.90;;;;;;4940163;28;20740;-88
2020/12/20 06:15:51;;;;;;;7.70;6.90;;;5.30;99.90;;;;;;4940523;28;20470;-88
2020/12/20 06:18:24;;;;;;;9.03;8.17;;;5.20;99.90;;;;;;4936564;28;20484;-88
2020/12/20 06:20:58;;;;;;;7.33;6.67;;;5.30;99.90;;;;;;4939000;28;20478;-88
2020/12/20 06:23:34;;;;;;;8.83;7.93;;;5.30;99.90;;;;;;4954999;28;20482;-83
2020/12/20 06:26:02;;;;;;;11.10;7.93;;;5.20;99.90;;;;;;4936640;28;20443;-83
2020/12/20 06:28:30;;;;;;;7.43;6.70;;;5.30;99.90;;;;;;4934620;28;20432;-83
2020/12/20 06:30:57;;;;;;;7.47;6.50;;;5.30;99.90;;;;;;4919103;29;20484;-82
2020/12/20 06:33:38;;;;;;;7.57;6.40;;;5.40;99.90;;;;;;4918545;29;20446;-82
2020/12/20 06:36:11;;;;;;;7.43;6.70;;;5.50;99.90;;;;;;4935944;29;20439;-82
2020/12/20 06:38:37;;;;;;;7.90;7.20;;;5.50;99.90;;;;;;4919458;29;20480;-90
2020/12/20 06:41:03;;;;;;;8.50;6.93;;;5.50;99.90;;;;;;5020617;23;20499;-82
2020/12/20 06:43:33;;;;;;;7.47;6.67;;;5.50;99.90;;;;;;4971596;29;20414;-96
2020/12/20 06:56:27;;;;;;;7.00;6.30;;;5.50;99.90;;;;;;5159223;23;20478;-89
2020/12/20 06:58:53;;;;;;;6.67;6.07;;;5.50;99.90;;;;;;4945531;28;20557;-83
2020/12/20 07:01:45;;;;;;;6.50;5.73;;;5.40;99.90;;;;;;4947683;29;20896;-83
2020/12/20 07:04:14;;;;;;;8.47;7.37;;;5.40;99.90;;;;;;4941837;28;20528;-83
2020/12/20 07:06:40;;;;;;;9.30;8.40;;;5.30;99.90;;;;;;4945740;28;20447;-83
2020/12/20 07:09:07;;;;;;;34.53;16.83;;;5.20;99.90;;;;;;4946372;28;20801;-83
2020/12/20 07:14:25;;;;;;;9.43;7.20;;;5.30;99.90;;;;;;5040235;23;20492;-88
2020/12/20 07:16:51;;;;;;;6.77;6.13;;;5.30;99.90;;;;;;4984489;28;20879;-86
2020/12/20 07:19:25;;;;;;;7.03;6.40;;;5.40;99.90;;;;;;4982737;28;20537;-87
2020/12/20 07:21:53;;;;;;;7.10;6.13;;;5.40;99.90;;;;;;4985338;28;20452;-86
2020/12/20 07:24:22;;;;;;;7.37;6.67;;;5.40;99.90;;;;;;4983824;28;20528;-86
2020/12/20 07:26:50;;;;;;;12.17;10.87;;;5.40;99.90;;;;;;4980502;28;20446;-86
2020/12/20 07:29:16;;;;;;;9.43;8.43;;;5.40;99.90;;;;;;4982868;28;20562;-85
2020/12/20 07:31:43;;;;;;;9.40;8.07;;;5.40;99.90;;;;;;4984302;28;20446;-86
2020/12/20 07:34:08;;;;;;;9.33;8.30;;;5.60;99.90;;;;;;4982644;28;20448;-86
2020/12/20 07:36:34;;;;;;;10.50;9.10;;;5.50;99.90;;;;;;4986226;28;20440;-86
2020/12/20 07:39:02;;;;;;;10.10;9.07;;;5.60;99.90;;;;;;4987783;28;20308;-87
2020/12/20 07:41:28;;;;;;;9.80;8.80;;;5.70;99.90;;;;;;4987209;28;20445;-85
2020/12/20 07:43:54;;;;;;;8.70;7.80;;;5.70;99.90;;;;;;4988331;28;20452;-85
2020/12/20 07:46:21;;;;;;;8.50;7.10;;;5.70;99.90;;;;;;4988099;28;20656;-85
2020/12/20 07:48:47;;;;;;;7.40;6.70;;;5.70;99.90;;;;;;4989495;28;20441;-85
2020/12/20 07:51:22;;;;;;;6.90;6.20;;;5.70;99.90;;;;;;4989161;28;20468;-85
2020/12/20 07:53:56;;;;;;;8.80;7.90;;;5.80;99.90;;;;;;4987940;28;20437;-84
2020/12/20 07:56:27;;;;;;;7.03;6.33;;;5.80;99.90;;;;;;4986417;28;20446;-85
2020/12/20 07:58:54;;;;;;;6.77;6.17;;;6.00;99.90;;;;;;4987972;28;20819;-85
2020/12/20 08:01:20;;;;;;;7.30;6.40;;;6.00;99.90;;;;;;4984487;28;20477;-86
2020/12/20 08:03:47;;;;;;;8.10;5.67;;;6.10;99.90;;;;;;4995421;28;20449;-85
2020/12/20 08:06:15;;;;;;;6.80;6.10;;;6.20;99.90;;;;;;4999596;28;20473;-85
2020/12/20 08:08:42;;;;;;;7.03;6.33;;;6.20;99.90;;;;;;5011135;28;20445;-87
2020/12/20 08:11:22;;;;;;;8.40;7.20;;;6.20;99.90;;;;;;4998241;28;20528;-86
2020/12/20 08:14:08;;;;;;;9.30;7.93;;;6.30;99.90;;;;;;5000385;28;20526;-87
2020/12/20 08:16:37;;;;;;;8.80;7.80;;;6.40;99.90;;;;;;4999748;28;20523;-85
2020/12/20 08:19:07;;;;;;;9.77;8.77;;;6.60;99.90;;;;;;4998022;28;20483;-86
2020/12/20 08:21:43;;;;;;;8.90;8.00;;;6.80;99.90;;;;;;4998680;28;20747;-87
2020/12/20 08:24:11;;;;;;;7.73;7.03;;;6.90;99.90;;;;;;4995623;28;20449;-86
2020/12/20 08:26:37;;;;;;;6.90;6.30;;;6.90;99.90;;;;;;4991694;28;20436;-88
2020/12/20 08:29:16;;;;;;;8.23;7.13;;;6.90;99.90;;;;;;4983703;28;20967;-85
2020/12/20 08:31:42;;;;;;;7.53;6.87;;;7.00;99.90;;;;;;4985751;28;20445;-86
2020/12/20 08:34:34;;;;;;;6.90;6.30;;;7.20;99.90;;;;;;4988748;28;20429;-85
2020/12/20 08:37:09;;;;;;;7.50;6.80;;;7.80;99.90;;;;;;4982002;28;20445;-85
2020/12/20 08:39:45;;;;;;;6.90;6.30;;;8.80;99.90;;;;;;4985643;28;20866;-86
2020/12/20 08:42:18;;;;;;;6.83;6.20;;;9.50;99.90;;;;;;4987351;28;20434;-87
2020/12/20 08:45:11;;;;;;;6.87;6.27;;;10.00;99.90;;;;;;4984629;28;20952;-88
2020/12/20 08:50:09;;;;;;;7.07;6.47;;;9.80;99.90;;;;;;4989655;28;20542;-87
2020/12/20 08:52:44;;;;;;;7.33;6.63;;;9.70;99.90;;;;;;4984317;28;20543;-86
2020/12/20 08:55:25;;;;;;;7.47;6.77;;;9.60;99.90;;;;;;4985035;28;20471;-87
2020/12/20 08:58:03;;;;;;;6.80;6.20;;;9.50;99.90;;;;;;4986617;28;20844;-87
2020/12/20 09:00:34;;;;;;;9.90;7.37;;;9.20;99.90;;;;;;4986597;28;20444;-86
2020/12/20 09:03:00;;;;;;;9.83;7.10;;;8.90;99.90;;;;;;4982048;28;22251;-87
2020/12/20 09:05:28;;;;;;;10.50;7.03;;;8.60;99.90;;;;;;4985182;28;20447;-88
2020/12/20 09:08:10;;;;;;;9.53;7.40;;;8.50;99.90;;;;;;4985310;28;20433;-87
2020/12/20 09:10:36;;;;;;;7.67;6.80;;;8.30;99.90;;;;;;4985567;28;20445;-85
2020/12/20 09:13:06;;;;;;;7.60;6.90;;;8.30;99.90;;;;;;4984631;28;20455;-87
2020/12/20 09:15:34;;;;;;;8.97;8.17;;;8.30;99.90;;;;;;4984077;28;20187;-86
2020/12/20 09:18:17;;;;;;;9.23;7.20;;;8.60;99.90;;;;;;4980913;28;20573;-86
2020/12/20 09:20:44;;;;;;;8.97;8.07;;;9.00;99.90;;;;;;4985083;28;20443;-86
2020/12/20 09:23:21;;;;;;;8.40;7.60;;;9.40;99.90;;;;;;4984402;28;20436;-85
2020/12/20 09:25:48;;;;;;;7.77;7.07;;;9.70;99.90;;;;;;4986516;28;20494;-86
2020/12/20 09:28:21;;;;;;;10.57;8.13;;;10.00;99.90;;;;;;4985918;28;20428;-86
2020/12/20 09:30:48;;;;;;;8.00;7.30;;;10.30;99.90;;;;;;5000325;28;20491;-87
2020/12/20 09:33:39;;;;;;;9.03;8.13;;;10.20;99.90;;;;;;4985793;28;20437;-86
2020/12/20 09:36:22;;;;;;;7.90;7.20;;;10.20;99.90;;;;;;4981202;28;20445;-85
2020/12/20 09:38:53;;;;;;;7.97;7.27;;;10.50;99.90;;;;;;4983727;28;20481;-87
2020/12/20 09:41:25;;;;;;;8.20;7.40;;;11.30;99.10;;;;;;4984799;28;20468;-86
2020/12/20 09:43:52;;;;;;;13.07;8.40;;;11.90;97.80;;;;;;4984676;28;20882;-85
2020/12/20 09:46:21;;;;;;;8.60;7.80;;;12.20;96.20;;;;;;4986380;28;20564;-86
2020/12/20 09:48:50;;;;;;;8.60;7.87;;;12.40;95.90;;;;;;4985634;28;20473;-86
2020/12/20 09:51:17;;;;;;;9.00;8.13;;;12.50;95.90;;;;;;4980952;28;20484;-87
2020/12/20 09:53:42;;;;;;;7.80;7.10;;;12.10;95.70;;;;;;4985241;28;20451;-85
2020/12/20 09:56:17;;;;;;;8.23;7.43;;;12.00;96.10;;;;;;4985819;28;20457;-85
2020/12/20 09:58:44;;;;;;;10.13;9.23;;;11.90;95.70;;;;;;4959965;28;20289;-84
2020/12/20 10:01:21;;;;;;;9.83;8.97;;;11.70;96.10;;;;;;4978617;28;20462;-85
2020/12/20 10:03:47;;;;;;;8.60;7.90;;;11.50;96.80;;;;;;4979404;28;20448;-85
2020/12/20 10:06:17;;;;;;;10.17;9.17;;;11.30;96.70;;;;;;4975680;28;20449;-85
2020/12/20 10:08:44;;;;;;;11.63;8.50;;;11.30;97.40;;;;;;4978281;28;20503;-85
2020/12/20 10:11:10;;;;;;;11.23;8.37;;;11.40;97.20;;;;;;4978176;28;20445;-85
2020/12/20 10:13:36;;;;;;;9.10;8.30;;;11.30;96.90;;;;;;4993325;28;20522;-83
2020/12/20 10:16:03;;;;;;;9.60;8.20;;;11.00;97.60;;;;;;4980883;28;20476;-84
2020/12/20 10:18:28;;;;;;;9.00;8.20;;;10.80;97.80;;;;;;4980400;28;20472;-85
2020/12/20 10:20:55;;;;;;;9.00;8.20;;;10.60;98.40;;;;;;4980203;28;20980;-85
2020/12/20 10:23:20;;;;;;;8.60;7.80;;;10.40;98.70;;;;;;4978883;28;20682;-84
2020/12/20 10:25:46;;;;;;;8.80;8.00;;;10.30;99.30;;;;;;4980289;28;20996;-84
2020/12/20 10:28:12;;;;;;;9.03;8.23;;;10.10;99.20;;;;;;4978295;28;20272;-86
2020/12/20 10:30:40;;;;;;;8.83;8.00;;;9.70;99.90;;;;;;4982503;28;20188;-85
2020/12/20 10:33:06;;;;;;;9.03;8.17;;;9.70;99.90;;;;;;4964046;28;20618;-85
2020/12/20 10:35:32;;;;;;;9.13;8.23;;;9.60;99.90;;;;;;4982845;28;20433;-86
2020/12/20 10:37:58;;;;;;;10.47;7.70;;;9.60;99.90;;;;;;4978207;28;20247;-86
2020/12/20 10:40:26;;;;;;;9.20;8.30;;;9.70;99.90;;;;;;4979329;28;20200;-85
2020/12/20 10:42:52;;;;;;;9.30;8.40;;;9.80;99.90;;;;;;4979921;28;20548;-85
2020/12/20 10:45:18;;;;;;;8.80;7.87;;;9.80;99.90;;;;;;4971902;28;20444;-86
2020/12/20 10:47:44;;;;;;;8.67;7.87;;;9.80;99.90;;;;;;4981007;28;20193;-84
2020/12/20 10:50:11;;;;;;;10.17;8.80;;;9.60;99.90;;;;;;4977414;28;20196;-85
2020/12/20 10:52:37;;;;;;;10.77;9.67;;;9.60;99.90;;;;;;4977885;28;20543;-85
2020/12/20 10:55:04;;;;;;;10.33;9.33;;;9.50;99.90;;;;;;4980578;28;20869;-85
2020/12/20 10:57:30;;;;;;;10.60;9.60;;;9.50;99.90;;;;;;4993874;28;20229;-85
2020/12/20 10:59:56;;;;;;;11.70;9.67;;;9.60;99.90;;;;;;4978238;28;20443;-84
2020/12/20 11:02:22;;;;;;;9.27;8.43;;;10.00;99.90;;;;;;4980756;28;20455;-83
2020/12/20 11:04:47;;;;;;;11.60;8.30;;;10.30;99.10;;;;;;4997453;28;20193;-82
2020/12/20 11:07:14;;;;;;;8.40;7.60;;;10.40;99.00;;;;;;4981842;28;20448;-82
2020/12/20 11:09:40;;;;;;;9.30;8.40;;;10.40;98.70;;;;;;4979333;28;20620;-82
2020/12/20 11:12:06;;;;;;;9.73;8.83;;;10.50;98.60;;;;;;4982927;28;20528;-82
2020/12/20 11:14:34;;;;;;;9.60;8.60;;;10.60;98.60;;;;;;4985372;28;20276;-83
2020/12/20 11:17:01;;;;;;;9.90;9.00;;;10.60;98.80;;;;;;4984467;28;20950;-83
2020/12/20 11:19:27;;;;;;;9.27;8.37;;;10.60;99.20;;;;;;4986301;28;20475;-83
2020/12/20 11:21:54;;;;;;;9.60;8.80;;;10.90;99.00;;;;;;4986238;28;20444;-84
2020/12/20 11:24:20;;;;;;;10.27;9.37;;;11.20;97.80;;;;;;4982919;28;20189;-84
2020/12/20 11:26:48;;;;;;;10.27;9.27;;;11.50;97.40;;;;;;4982247;28;20437;-83
2020/12/20 11:29:14;;;;;;;10.60;9.53;;;11.40;97.50;;;;;;4986362;28;20507;-81
2020/12/20 11:31:40;;;;;;;10.63;9.63;;;11.60;96.80;;;;;;4984104;28;20572;-82
2020/12/20 11:34:07;;;;;;;9.40;8.60;;;12.30;96.90;;;;;;4986446;28;21013;-83
2020/12/20 11:36:45;;;;;;;10.00;8.87;;;12.90;94.00;;;;;;4986340;28;20527;-86
2020/12/20 11:39:13;;;;;;;8.40;7.50;;;14.20;93.10;;;;;;4983190;28;20598;-85
2020/12/20 11:41:40;;;;;;;17.73;16.10;;;15.40;84.80;;;;;;4985327;28;20440;-84
2020/12/20 11:44:12;;;;;;;13.57;9.53;;;15.30;81.20;;;;;;4985008;28;20460;-86
2020/12/20 11:46:37;;;;;;;9.53;8.60;;;14.90;81.30;;;;;;4983583;28;20801;-86
2020/12/20 11:49:07;;;;;;;10.37;9.20;;;14.80;82.50;;;;;;4981234;28;21112;-84
2020/12/20 11:51:35;;;;;;;9.40;8.50;;;14.70;82.70;;;;;;4982377;28;20668;-84
2020/12/20 11:54:09;;;;;;;9.20;8.40;;;14.70;81.50;;;;;;4986194;28;20524;-85
2020/12/20 11:56:42;;;;;;;8.50;7.70;;;14.40;81.10;;;;;;4985717;28;20452;-86
2020/12/20 11:59:36;;;;;;;36.03;32.53;;;14.30;86.10;;;;;;4986900;28;20507;-89
2020/12/20 12:02:06;;;;;;;18.37;16.53;;;14.50;84.50;;;;;;4980972;28;20436;-88
2020/12/20 12:04:39;;;;;;;11.20;10.20;;;14.40;83.80;;;;;;4981909;28;20451;-88
2020/12/20 12:07:19;;;;;;;9.73;8.83;;;14.00;85.90;;;;;;4983003;28;20541;-86
2020/12/20 12:13:17;;;;;;;12.10;10.90;;;14.00;89.70;;;;;;4980507;28;20543;-87
2020/12/20 12:15:47;;;;;;;11.10;9.90;;;13.60;90.50;;;;;;4982573;28;20950;-86
2020/12/20 12:18:16;;;;;;;11.07;10.00;;;13.40;91.10;;;;;;4981876;28;20221;-87
2020/12/20 12:20:41;;;;;;;17.03;9.70;;;13.10;91.90;;;;;;4981562;28;20440;-87
2020/12/20 12:25:56;;;;;;;10.97;9.80;;;12.60;93.60;;;;;;4986656;28;20281;-86
2020/12/20 12:31:42;;;;;;;10.70;9.60;;;12.10;95.40;;;;;;4981582;28;20190;-85
2020/12/20 12:34:10;;;;;;;10.97;10.00;;;12.10;95.40;;;;;;4978702;28;20495;-87
2020/12/20 12:36:56;;;;;;;11.40;10.20;;;12.00;95.80;;;;;;4983724;28;20444;-85
2020/12/20 12:40:09;;;;;;;10.60;9.70;;;12.10;96.10;;;;;;4982350;28;20472;-88
2020/12/20 12:42:35;;;;;;;10.63;9.63;;;12.00;96.30;;;;;;4986475;28;20487;-88
2020/12/20 12:45:03;;;;;;;11.00;9.90;;;12.00;96.70;;;;;;4985014;28;20436;-87
2020/12/20 12:47:31;;;;;;;12.53;10.70;;;11.80;97.00;;;;;;4985345;28;20526;-87
2020/12/20 12:50:07;;;;;;;11.40;10.27;;;11.60;97.60;;;;;;4983772;28;20700;-86
2020/12/20 12:52:38;;;;;;;12.50;11.20;;;11.50;98.00;;;;;;4984587;28;20803;-87
2020/12/20 12:55:11;;;;;;;11.70;10.60;;;11.40;98.90;;;;;;4965683;28;21342;-87
2020/12/20 12:57:39;;;;;;;11.37;10.17;;;11.20;99.00;;;;;;4983169;28;20582;-87
2020/12/20 13:00:08;;;;;;;12.60;11.40;;;11.10;99.60;;;;;;4981797;28;20441;-87
2020/12/20 13:03:04;;;;;;;12.90;11.60;;;11.00;99.90;;;;;;4979626;28;20979;-87
2020/12/20 13:05:30;;;;;;;12.00;10.30;;;10.80;99.90;;;;;;4983288;28;20577;-90
2020/12/20 13:07:55;;;;;;;10.40;9.40;;;10.80;99.90;;;;;;4983455;28;20440;-88
2020/12/20 13:10:39;;;;;;;12.37;11.10;;;10.80;99.90;;;;;;4984663;28;20186;-90
2020/12/20 13:14:05;;;;;;;14.07;10.77;;;10.80;99.90;;;;;;4983228;28;20552;-92
2020/12/20 13:16:40;;;;;;;16.63;10.47;;;10.80;99.90;;;;;;4990889;28;20555;-94
2020/12/20 13:19:21;;;;;;;12.40;11.20;;;10.70;99.90;;;;;;4983309;28;20484;-90
2020/12/20 13:21:49;;;;;;;13.70;11.40;;;10.70;99.90;;;;;;4983036;28;21071;-92
2020/12/20 13:24:18;;;;;;;17.63;13.40;;;10.70;99.90;;;;;;4980433;28;20466;-92
2020/12/20 13:27:09;;;;;;;12.67;10.77;;;10.60;99.90;;;;;;4984763;28;20441;-92
2020/12/20 13:29:43;;;;;;;13.17;11.77;;;10.60;99.90;;;;;;4982577;28;20803;-93
2020/12/20 13:32:09;;;;;;;15.40;13.20;;;10.60;99.90;;;;;;4984596;28;20447;-92
2020/12/20 13:34:40;;;;;;;13.60;12.20;;;10.60;99.90;;;;;;4984244;28;20451;-93
2020/12/20 13:40:56;;;;;;;13.10;11.60;;;10.60;99.90;;;;;;4983881;28;20421;-93
2020/12/20 13:43:46;;;;;;;12.83;11.20;;;10.40;99.90;;;;;;4985282;28;20429;-92
2020/12/20 13:50:05;;;;;;;13.60;11.60;;;10.10;99.90;;;;;;4987785;28;20961;-94
2020/12/20 13:52:42;;;;;;;12.13;10.87;;;10.10;99.90;;;;;;4985096;28;20523;-94
2020/12/20 13:55:11;;;;;;;11.57;10.37;;;10.20;99.90;;;;;;4985596;28;20544;-91
2020/12/20 13:57:39;;;;;;;12.33;11.03;;;10.20;99.90;;;;;;4984171;28;20264;-92
2020/12/20 14:00:19;;;;;;;12.23;11.03;;;10.20;99.90;;;;;;4982341;28;20466;-93